Sacramento (SMF/KSMF)

Information

Location
Sacramento, CA
Local Time
17:11 / 5:11 pm
GMT Time
00:11 / 12:11 am
Gates
Unassigned
No FAA reported delays
METAR KSMF 222353Z 06006KT 10SM BKN060 13/09 A2999 RMK AO2 RAB01E51 SLP155 P0010 60010 T01330094 10167 20128 56012
TAF KSMF 222325Z 2300/2324 17010KT P6SM VCSH FEW050 BKN070 FM230200 18008KT P6SM FEW250
  • No charts available